createdAt,value
2017-05-01T00:01:35.087Z,68.40
2017-05-01T00:04:03.969Z,68.40
2017-05-01T00:06:32.890Z,68.40
2017-05-01T00:09:01.777Z,68.90
2017-05-01T00:11:30.657Z,69.80
2017-05-01T00:13:59.590Z,69.10
2017-05-01T00:16:28.475Z,68.50
2017-05-01T00:18:57.357Z,68.90
2017-05-01T00:21:26.538Z,68.10
2017-05-01T00:23:55.423Z,68.20
2017-05-01T00:26:24.304Z,69.00
2017-05-01T00:28:53.232Z,68.80
2017-05-01T00:31:22.112Z,68.60
2017-05-01T00:33:50.993Z,68.90
2017-05-01T00:36:19.925Z,69.20
2017-05-01T00:38:49.550Z,69.50
2017-05-01T00:41:18.431Z,68.90
2017-05-01T00:43:47.366Z,69.50
2017-05-01T00:46:16.249Z,69.30
2017-05-01T00:48:45.137Z,69.20
2017-05-01T00:51:14.045Z,69.30
2017-05-01T00:53:42.925Z,69.10
2017-05-01T00:56:11.853Z,70.00
2017-05-01T00:58:40.741Z,70.00
2017-05-01T01:01:09.629Z,70.00
2017-05-01T01:03:38.559Z,69.70
2017-05-01T01:06:07.436Z,69.30
2017-05-01T01:08:36.333Z,70.40
2017-05-01T01:11:11.196Z,70.30
2017-05-01T01:13:40.075Z,70.70
2017-05-01T01:16:08.965Z,70.20
2017-05-01T01:18:37.884Z,70.40
2017-05-01T01:21:06.790Z,70.90
2017-05-01T01:23:35.673Z,70.90
2017-05-01T01:26:04.597Z,70.30
2017-05-01T01:28:34.221Z,70.70
2017-05-01T01:31:03.105Z,70.80
2017-05-01T01:33:32.028Z,71.00
2017-05-01T01:36:00.934Z,70.70
2017-05-01T01:38:29.822Z,71.30
2017-05-01T01:40:58.842Z,71.00
2017-05-01T01:43:27.719Z,71.30
2017-05-01T01:45:56.615Z,71.50
2017-05-01T01:48:25.541Z,72.40
2017-05-01T01:50:55.204Z,72.50
2017-05-01T01:53:24.090Z,72.30
2017-05-01T01:55:52.993Z,73.30
2017-05-01T01:58:21.903Z,72.70
2017-05-01T02:00:50.792Z,72.40
2017-05-01T02:03:19.814Z,72.30
2017-05-01T02:05:48.721Z,71.40
2017-05-01T02:08:17.616Z,71.80
2017-05-01T02:10:46.824Z,72.20
2017-05-01T02:13:15.721Z,72.50
2017-05-01T02:15:44.622Z,72.00
2017-05-01T02:18:13.645Z,71.80
2017-05-01T02:20:42.547Z,71.60
2017-05-01T02:23:12.174Z,71.80
2017-05-01T02:25:41.081Z,71.80
2017-05-01T02:28:09.969Z,71.50
2017-05-01T02:30:39.185Z,71.60
2017-05-01T02:33:08.080Z,71.90
2017-05-01T02:35:36.977Z,72.60
2017-05-01T02:38:06.156Z,72.60
2017-05-01T02:40:35.045Z,72.80
2017-05-01T02:43:03.924Z,72.60
2017-05-01T02:45:32.842Z,73.10
2017-05-01T02:48:01.737Z,73.10
2017-05-01T02:50:30.616Z,73.00
2017-05-01T02:52:59.540Z,73.00
2017-05-01T02:55:28.440Z,72.70
2017-05-01T02:57:57.334Z,72.20
2017-05-01T03:00:27.005Z,73.00
2017-05-01T03:02:55.894Z,73.20
2017-05-01T03:05:24.788Z,72.90
2017-05-01T03:07:54.070Z,73.60
2017-05-01T03:10:22.972Z,73.90
2017-05-01T03:12:51.857Z,74.30
2017-05-01T03:15:21.048Z,73.60
2017-05-01T03:17:49.933Z,74.20
2017-05-01T03:20:18.808Z,73.90
2017-05-01T03:22:48.026Z,74.50
2017-05-01T03:25:16.913Z,74.60
2017-05-01T03:27:45.787Z,74.00
2017-05-01T03:30:15.006Z,74.10
2017-05-01T03:32:43.890Z,74.40
2017-05-01T03:35:12.771Z,73.90
2017-05-01T03:37:41.701Z,73.20
2017-05-01T03:40:10.581Z,74.50
2017-05-01T03:42:39.464Z,74.80
2017-05-01T03:45:08.397Z,74.10
2017-05-01T03:47:37.286Z,74.60
2017-05-01T03:50:06.213Z,74.60
2017-05-01T03:52:35.136Z,75.20
2017-05-01T03:55:04.022Z,74.90
2017-05-01T03:57:32.901Z,75.10
2017-05-01T04:00:01.826Z,75.50
2017-05-01T04:02:30.711Z,75.20
2017-05-01T04:04:59.599Z,75.20
2017-05-01T04:07:28.533Z,75.40
2017-05-01T04:09:58.157Z,74.70
2017-05-01T04:12:27.045Z,73.60
2017-05-01T04:14:55.964Z,74.20
2017-05-01T04:17:24.855Z,73.90
2017-05-01T04:19:53.729Z,74.20
2017-05-01T04:22:22.652Z,74.40
2017-05-01T04:24:51.536Z,74.00
2017-05-01T04:27:20.416Z,74.20
2017-05-01T04:29:49.524Z,74.40
2017-05-01T04:32:18.401Z,74.00
2017-05-01T04:34:47.294Z,74.60
2017-05-01T04:37:16.492Z,74.10
2017-05-01T04:39:45.381Z,73.80
2017-05-01T04:42:14.260Z,73.90
2017-05-01T04:44:43.273Z,74.00
2017-05-01T04:47:12.161Z,73.40
2017-05-01T04:49:41.041Z,74.00
2017-05-01T04:52:09.957Z,74.80
2017-05-01T04:54:38.841Z,74.60
2017-05-01T04:57:07.772Z,74.50
2017-05-01T04:59:37.401Z,74.10
2017-05-01T05:02:06.286Z,74.00
2017-05-01T05:04:35.212Z,75.60
2017-05-01T05:07:04.097Z,73.70
2017-05-01T05:09:32.985Z,73.10
2017-05-01T05:12:02.181Z,73.40
2017-05-01T05:14:31.060Z,71.30
2017-05-01T05:16:59.944Z,71.20
2017-05-01T05:19:28.957Z,71.90
2017-05-01T05:21:57.837Z,72.10
2017-05-01T05:24:26.718Z,71.20
2017-05-01T05:26:55.640Z,69.20
2017-05-01T05:29:24.521Z,69.10
2017-05-01T05:31:53.411Z,68.90
2017-05-01T05:34:22.361Z,69.10
2017-05-01T05:36:51.228Z,69.50
2017-05-01T05:39:20.111Z,67.50
2017-05-01T05:41:49.133Z,69.50
2017-05-01T05:44:18.024Z,68.50
2017-05-01T05:46:46.913Z,68.00
2017-05-01T05:49:17.086Z,68.80
2017-05-01T05:51:45.980Z,68.60
2017-05-01T05:54:14.877Z,67.20
2017-05-01T05:56:43.801Z,66.70
2017-05-01T05:59:12.689Z,67.20
2017-05-01T06:01:41.601Z,66.40
2017-05-01T06:04:11.867Z,66.80
2017-05-01T06:06:40.748Z,66.10
2017-05-01T06:09:09.742Z,66.80
2017-05-01T06:11:38.941Z,66.70
2017-05-01T06:14:07.821Z,67.30
2017-05-01T06:16:36.700Z,68.20
2017-05-01T06:19:05.624Z,67.50
2017-05-01T06:21:34.520Z,67.30
2017-05-01T06:24:03.397Z,67.80
2017-05-01T06:26:32.560Z,67.40
2017-05-01T06:29:01.444Z,69.30
2017-05-01T06:31:31.073Z,68.90
2017-05-01T06:33:59.986Z,66.50
2017-05-01T06:36:28.874Z,68.10
2017-05-01T06:38:57.789Z,68.80
2017-05-01T06:41:26.681Z,67.80
2017-05-01T06:43:55.566Z,68.40
2017-05-01T06:46:24.495Z,68.00
2017-05-01T06:48:54.113Z,66.70
2017-05-01T06:51:23.011Z,66.50
2017-05-01T06:53:51.978Z,65.80
2017-05-01T06:56:21.608Z,65.20
2017-05-01T06:58:50.489Z,65.30
2017-05-01T07:01:20.154Z,65.50
2017-05-01T07:03:49.044Z,65.30
2017-05-01T07:06:17.933Z,64.70
2017-05-01T07:08:46.970Z,64.70
2017-05-01T07:11:16.593Z,63.20
2017-05-01T07:13:45.480Z,63.10
2017-05-01T07:16:14.496Z,63.00
2017-05-01T07:18:43.382Z,61.60
2017-05-01T07:21:12.260Z,64.10
2017-05-01T07:23:41.276Z,61.40
2017-05-01T07:26:10.163Z,63.50
2017-05-01T07:28:39.049Z,62.60
2017-05-01T07:31:07.973Z,61.60
2017-05-01T07:33:36.857Z,61.10
2017-05-01T07:36:05.744Z,61.90
2017-05-01T07:38:35.131Z,59.80
2017-05-01T07:41:04.022Z,60.30
2017-05-01T07:43:32.913Z,60.30
2017-05-01T07:46:01.814Z,59.20
2017-05-01T07:48:30.703Z,61.20
2017-05-01T07:50:59.898Z,59.50
2017-05-01T07:53:28.776Z,59.20
2017-05-01T07:55:57.663Z,59.50
2017-05-01T07:58:26.584Z,59.50
2017-05-01T08:00:55.468Z,58.90
2017-05-01T08:03:24.352Z,59.50
2017-05-01T08:05:53.642Z,58.80
2017-05-01T08:08:22.524Z,58.50
2017-05-01T08:10:51.410Z,59.90
2017-05-01T08:13:20.338Z,58.60
2017-05-01T08:15:49.243Z,58.00
2017-05-01T08:18:18.125Z,57.30
2017-05-01T08:20:47.299Z,57.40
2017-05-01T08:23:16.182Z,57.90
2017-05-01T08:25:45.062Z,56.70
2017-05-01T08:28:13.969Z,56.90
2017-05-01T08:30:42.870Z,54.50
2017-05-01T08:33:12.056Z,54.80
2017-05-01T08:35:40.951Z,55.50
2017-05-01T08:38:10.290Z,55.40
2017-05-01T08:40:39.445Z,56.00
2017-05-01T08:43:08.354Z,56.00
2017-05-01T08:45:37.243Z,55.70
2017-05-01T08:48:06.222Z,52.90
2017-05-01T08:50:35.242Z,52.00
2017-05-01T08:53:04.126Z,53.70
2017-05-01T08:55:33.063Z,51.40
2017-05-01T08:58:02.699Z,51.50
2017-05-01T09:00:31.589Z,48.50
2017-05-01T09:03:00.532Z,46.50
2017-05-01T09:05:29.418Z,43.90
2017-05-01T09:07:58.308Z,43.50
2017-05-01T09:10:27.440Z,44.00
2017-05-01T09:12:56.338Z,43.90
2017-05-01T09:15:25.227Z,44.60
2017-05-01T09:17:54.155Z,45.50
2017-05-01T09:20:23.036Z,47.50
2017-05-01T09:22:51.949Z,47.60
2017-05-01T09:25:20.840Z,47.10
2017-05-01T09:27:49.729Z,43.30
2017-05-01T09:30:18.825Z,43.40
2017-05-01T09:32:47.795Z,45.60
2017-05-01T09:35:16.702Z,44.20
2017-05-01T09:37:45.674Z,46.40
2017-05-01T09:40:14.569Z,46.50
2017-05-01T09:42:43.453Z,44.70
2017-05-01T09:45:12.474Z,47.80
2017-05-01T09:47:41.357Z,46.80
2017-05-01T09:50:10.244Z,44.40
2017-05-01T09:52:39.182Z,40.40
2017-05-01T09:55:08.805Z,38.70
2017-05-01T09:57:37.690Z,38.90
2017-05-01T10:00:06.609Z,44.10
2017-05-01T10:02:35.497Z,40.40
2017-05-01T10:05:04.373Z,42.50
2017-05-01T10:07:33.384Z,40.40
2017-05-01T10:10:02.274Z,38.60
2017-05-01T10:12:31.160Z,38.80
2017-05-01T10:15:00.171Z,38.50
2017-05-01T10:17:29.058Z,38.00
2017-05-01T10:19:57.941Z,37.80
2017-05-01T10:22:26.862Z,38.50
2017-05-01T10:24:55.745Z,37.90
2017-05-01T10:27:24.632Z,38.90
2017-05-01T10:29:53.555Z,39.80
2017-05-01T10:32:22.437Z,39.70
2017-05-01T10:34:51.326Z,39.70
2017-05-01T10:37:20.357Z,37.00
2017-05-01T10:39:49.237Z,37.10
2017-05-01T10:42:18.861Z,35.90
2017-05-01T10:44:48.079Z,37.30
2017-05-01T10:47:16.972Z,39.90
2017-05-01T10:49:45.856Z,39.30
2017-05-01T10:52:14.778Z,38.50
2017-05-01T10:54:43.657Z,37.80
2017-05-01T10:57:12.542Z,37.00
2017-05-01T10:59:41.568Z,37.30
2017-05-01T11:02:10.447Z,36.90
2017-05-01T11:04:39.335Z,34.40
2017-05-01T11:07:08.259Z,34.50
2017-05-01T11:12:13.454Z,37.50
2017-05-01T11:14:42.336Z,34.80
2017-05-01T11:17:11.223Z,35.00
2017-05-01T11:19:40.434Z,36.00
2017-05-01T11:22:09.326Z,37.20
2017-05-01T11:24:38.208Z,34.20
2017-05-01T11:27:07.222Z,33.50
2017-05-01T11:29:36.108Z,34.40
2017-05-01T11:32:04.990Z,34.00
2017-05-01T11:34:34.180Z,33.40
2017-05-01T11:37:03.069Z,33.00
2017-05-01T11:39:31.945Z,33.40
2017-05-01T11:42:01.160Z,33.30
2017-05-01T11:44:30.053Z,36.90
2017-05-01T11:46:58.937Z,32.50
2017-05-01T11:49:27.862Z,34.60
2017-05-01T11:51:56.744Z,35.20
2017-05-01T11:54:26.004Z,35.30
2017-05-01T11:56:55.617Z,34.80
2017-05-01T11:59:24.492Z,35.90
2017-05-01T12:01:53.417Z,34.90
2017-05-01T12:04:22.296Z,32.40
2017-05-01T12:06:51.187Z,35.00
2017-05-01T12:09:20.287Z,34.60
2017-05-01T12:11:49.163Z,34.20
2017-05-01T12:14:18.050Z,34.40
2017-05-01T12:16:46.966Z,30.00
2017-05-01T12:19:15.849Z,28.30
2017-05-01T12:21:44.745Z,28.30
2017-05-01T12:24:13.868Z,29.90
2017-05-01T12:26:42.745Z,31.80
2017-05-01T12:29:11.629Z,32.40
2017-05-01T12:31:40.623Z,30.00
2017-05-01T12:34:09.509Z,26.80
2017-05-01T12:36:38.385Z,25.10
2017-05-01T12:39:07.306Z,23.00
2017-05-01T12:41:36.193Z,23.60
2017-05-01T12:44:05.082Z,24.80
2017-05-01T12:46:34.214Z,26.70
2017-05-01T12:49:03.841Z,25.80
2017-05-01T12:51:32.723Z,25.60
2017-05-01T12:54:02.677Z,26.70
2017-05-01T12:56:31.556Z,22.20
2017-05-01T12:59:00.444Z,22.40
2017-05-01T13:01:29.452Z,23.50
2017-05-01T13:03:58.334Z,26.40
2017-05-01T13:06:27.241Z,25.30
2017-05-01T13:08:56.156Z,23.60
2017-05-01T13:11:25.038Z,27.30
2017-05-01T13:13:53.920Z,26.10
2017-05-01T13:16:22.926Z,29.00
2017-05-01T13:18:51.822Z,28.60
2017-05-01T13:21:20.702Z,30.10
2017-05-01T13:23:49.747Z,29.70
2017-05-01T13:26:19.370Z,29.50
2017-05-01T13:28:48.251Z,29.30
2017-05-01T13:31:17.172Z,28.20
2017-05-01T13:33:46.053Z,27.20
2017-05-01T13:36:14.943Z,27.70
2017-05-01T13:38:43.852Z,25.50
2017-05-01T13:41:12.737Z,26.20
2017-05-01T13:43:41.621Z,28.90
2017-05-01T13:46:10.789Z,29.30
2017-05-01T13:48:39.679Z,29.50
2017-05-01T13:51:08.556Z,29.20
2017-05-01T13:53:38.220Z,30.60
2017-05-01T13:56:07.108Z,29.70
2017-05-01T13:58:35.992Z,30.00
2017-05-01T14:01:05.020Z,28.70
2017-05-01T14:03:33.914Z,28.70
2017-05-01T14:06:02.795Z,27.90
2017-05-01T14:08:31.957Z,27.20
2017-05-01T14:11:00.873Z,25.20
2017-05-01T14:13:29.732Z,24.60
2017-05-01T14:15:58.852Z,23.10
2017-05-01T14:18:27.741Z,22.70
2017-05-01T14:20:56.621Z,22.20
2017-05-01T14:23:25.552Z,21.80
2017-05-01T14:25:54.436Z,20.30
2017-05-01T14:28:23.317Z,20.20
2017-05-01T14:30:52.241Z,20.40
2017-05-01T14:33:21.858Z,20.60
2017-05-01T14:35:50.736Z,21.70
2017-05-01T14:38:20.401Z,20.50
2017-05-01T14:40:49.286Z,20.80
2017-05-01T14:43:18.171Z,20.80
2017-05-01T14:45:47.076Z,21.30
2017-05-01T14:48:15.967Z,22.40
2017-05-01T14:50:44.881Z,22.50
2017-05-01T14:53:13.759Z,23.30
2017-05-01T14:55:42.638Z,23.70
2017-05-01T14:58:11.561Z,26.80
2017-05-01T15:00:40.436Z,28.30
2017-05-01T15:03:09.320Z,29.00
2017-05-01T15:05:38.489Z,30.10
2017-05-01T15:08:07.365Z,32.20
2017-05-01T15:10:36.261Z,33.20
2017-05-01T15:13:05.278Z,34.40
2017-05-01T15:15:34.157Z,35.20
2017-05-01T15:18:03.037Z,35.40
2017-05-01T15:20:31.954Z,35.20
2017-05-01T15:23:00.836Z,36.40
2017-05-01T15:25:29.718Z,36.90
2017-05-01T15:27:58.637Z,37.40
2017-05-01T15:30:27.521Z,36.90
2017-05-01T15:32:56.417Z,37.70
2017-05-01T15:35:25.333Z,37.30
2017-05-01T15:37:54.961Z,37.80
2017-05-01T15:40:23.849Z,38.50
2017-05-01T15:42:52.868Z,38.10
2017-05-01T15:45:21.757Z,38.40
2017-05-01T15:47:50.670Z,38.80
2017-05-01T15:50:19.668Z,38.80
2017-05-01T15:52:48.554Z,39.60
2017-05-01T15:55:17.438Z,39.10
2017-05-01T15:57:46.356Z,38.90
2017-05-01T16:00:15.243Z,39.20
2017-05-01T16:02:44.129Z,40.50
2017-05-01T16:05:13.049Z,40.40
2017-05-01T16:07:42.679Z,39.70
2017-05-01T16:10:11.556Z,39.70
2017-05-01T16:12:41.222Z,40.30
2017-05-01T16:15:10.096Z,40.70
2017-05-01T16:17:38.985Z,41.00
2017-05-01T16:20:07.988Z,41.30
2017-05-01T16:22:37.169Z,40.70
2017-05-01T16:25:06.182Z,41.60
2017-05-01T16:27:35.065Z,41.10
2017-05-01T16:30:03.982Z,41.40
2017-05-01T16:32:32.900Z,42.90
2017-05-01T16:35:02.517Z,42.40
2017-05-01T16:37:31.402Z,42.20
2017-05-01T16:40:01.068Z,42.80
2017-05-01T16:42:29.953Z,42.00
2017-05-01T16:44:58.842Z,42.90
2017-05-01T16:47:27.852Z,42.50
2017-05-01T16:49:56.742Z,42.80
2017-05-01T16:52:25.639Z,42.90
2017-05-01T16:54:54.544Z,43.70
2017-05-01T16:57:24.860Z,43.70
2017-05-01T16:59:53.755Z,44.50
2017-05-01T17:02:22.648Z,43.10
2017-05-01T17:04:51.691Z,43.00
2017-05-01T17:07:20.576Z,43.20
2017-05-01T17:09:49.545Z,43.80
2017-05-01T17:12:19.168Z,44.60
2017-05-01T17:14:48.059Z,44.30
2017-05-01T17:17:16.984Z,44.50
2017-05-01T17:19:45.871Z,44.50
2017-05-01T17:22:14.748Z,45.00
2017-05-01T17:24:43.893Z,45.10
2017-05-01T17:27:12.785Z,45.90
2017-05-01T17:29:42.428Z,46.10
2017-05-01T17:32:11.358Z,45.70
2017-05-01T17:34:40.244Z,46.30
2017-05-01T17:37:09.134Z,48.00
2017-05-01T17:39:38.068Z,49.50
2017-05-01T17:42:07.688Z,50.30
2017-05-01T17:44:36.580Z,51.50
2017-05-01T17:47:05.501Z,52.10
2017-05-01T17:49:34.433Z,52.50
2017-05-01T17:52:03.384Z,53.40
2017-05-01T17:54:32.297Z,53.90
2017-05-01T17:57:01.453Z,53.90
2017-05-01T17:59:30.592Z,53.90
2017-05-01T18:02:00.260Z,54.60
2017-05-01T18:04:29.198Z,54.80
2017-05-01T18:06:58.132Z,55.50
2017-05-01T18:09:27.154Z,56.40
2017-05-01T18:11:56.171Z,57.00
2017-05-01T18:14:25.070Z,58.00
2017-05-01T18:16:53.958Z,58.50
2017-05-01T18:19:22.895Z,59.00
2017-05-01T18:21:51.802Z,58.80
2017-05-01T18:24:20.841Z,59.10
2017-05-01T18:26:50.526Z,59.70
2017-05-01T18:29:19.533Z,59.70
2017-05-01T18:31:48.424Z,60.00
2017-05-01T18:34:17.445Z,60.60
2017-05-01T18:36:46.367Z,60.30
2017-05-01T18:39:15.348Z,60.40
2017-05-01T18:41:44.387Z,61.30
2017-05-01T18:44:13.275Z,61.70
2017-05-01T18:46:42.166Z,60.70
2017-05-01T18:49:11.090Z,62.00
2017-05-01T18:51:41.193Z,61.40
2017-05-01T18:54:10.085Z,62.10
2017-05-01T18:56:38.978Z,61.90
2017-05-01T18:59:07.969Z,62.10
2017-05-01T19:01:36.868Z,62.70
2017-05-01T19:04:05.795Z,62.80
2017-05-01T19:06:34.716Z,62.30
2017-05-01T19:09:03.613Z,63.10
2017-05-01T19:11:33.465Z,63.40
2017-05-01T19:16:31.853Z,63.40
2017-05-01T19:19:02.308Z,65.10
2017-05-01T19:21:31.534Z,64.20
2017-05-01T19:24:00.437Z,63.70
2017-05-01T19:26:29.421Z,64.20
2017-05-01T19:28:58.354Z,64.00
2017-05-01T19:31:28.557Z,63.90
2017-05-01T19:33:57.449Z,63.70
2017-05-01T19:36:26.378Z,64.00
2017-05-01T19:38:55.269Z,64.80
2017-05-01T19:41:24.161Z,64.40
2017-05-01T19:43:53.101Z,63.10
2017-05-01T19:46:22.004Z,62.40
2017-05-01T19:48:50.892Z,62.10
2017-05-01T19:51:19.854Z,62.30
2017-05-01T19:53:48.763Z,62.60
2017-05-01T19:56:17.777Z,62.70
2017-05-01T19:58:46.720Z,64.10
2017-05-01T20:01:15.618Z,64.00
2017-05-01T20:03:45.442Z,63.60
2017-05-01T20:06:14.636Z,64.30
2017-05-01T20:08:44.735Z,64.50
2017-05-01T20:11:13.621Z,64.30
2017-05-01T20:13:42.586Z,64.10
2017-05-01T20:16:11.514Z,64.10
2017-05-01T20:18:40.400Z,63.60
2017-05-01T20:21:09.340Z,63.20
2017-05-01T20:23:38.228Z,63.90
2017-05-01T20:26:07.110Z,64.40
2017-05-01T20:28:36.296Z,64.20
2017-05-01T20:31:05.192Z,63.60
2017-05-01T20:33:34.172Z,62.60
2017-05-01T20:36:03.104Z,62.60
2017-05-01T20:38:32.013Z,62.30
2017-05-01T20:41:01.645Z,61.80
2017-05-01T20:43:30.567Z,61.40
2017-05-01T20:45:59.457Z,61.70
2017-05-01T20:48:28.593Z,62.10
2017-05-01T20:50:57.577Z,60.90
2017-05-01T20:53:26.482Z,60.50
2017-05-01T20:55:56.118Z,61.30
2017-05-01T20:58:25.126Z,61.20
2017-05-01T21:00:54.069Z,62.20
2017-05-01T21:03:23.709Z,60.60
2017-05-01T21:05:52.924Z,60.60
2017-05-01T21:08:21.820Z,60.80
2017-05-01T21:10:50.713Z,61.60
2017-05-01T21:13:19.646Z,60.80
2017-05-01T21:15:49.281Z,61.80
2017-05-01T21:18:18.169Z,61.60
2017-05-01T21:20:47.101Z,61.00
2017-05-01T21:23:15.982Z,60.80
2017-05-01T21:25:44.887Z,62.70
2017-05-01T21:28:14.065Z,62.50
2017-05-01T21:30:42.965Z,61.50
2017-05-01T21:33:11.858Z,62.20
2017-05-01T21:35:41.085Z,63.10
2017-05-01T21:38:10.311Z,63.70
2017-05-01T21:40:39.929Z,64.50
2017-05-01T21:43:08.858Z,64.80
2017-05-01T21:45:37.745Z,66.00
2017-05-01T21:48:06.636Z,66.00
2017-05-01T21:50:35.567Z,66.90
2017-05-01T21:53:05.200Z,66.70
2017-05-01T21:55:34.103Z,64.40
2017-05-01T21:58:03.022Z,66.30
2017-05-01T22:00:31.919Z,68.30
2017-05-01T22:03:00.964Z,69.70
2017-05-01T22:05:29.860Z,72.50
2017-05-01T22:07:58.765Z,74.10
2017-05-01T22:10:27.888Z,75.20
2017-05-01T22:12:56.783Z,75.60
2017-05-01T22:15:25.664Z,76.00
2017-05-01T22:17:54.621Z,76.40
2017-05-01T22:20:23.522Z,77.30
2017-05-01T22:22:52.411Z,78.10
2017-05-01T22:25:21.344Z,78.40
2017-05-01T22:27:50.237Z,78.50
2017-05-01T22:30:19.134Z,79.20
2017-05-01T22:32:48.065Z,77.90
2017-05-01T22:35:16.957Z,78.60
2017-05-01T22:37:45.857Z,78.80
2017-05-01T22:40:14.868Z,78.70
2017-05-01T22:42:43.762Z,78.80
2017-05-01T22:45:12.658Z,80.00
2017-05-01T22:47:41.580Z,79.00
2017-05-01T22:50:10.478Z,79.40
2017-05-01T22:52:40.110Z,80.60
2017-05-01T22:55:09.334Z,81.70
2017-05-01T22:57:38.233Z,81.30
2017-05-01T23:00:07.121Z,81.70
2017-05-01T23:02:36.271Z,82.30
2017-05-01T23:05:05.893Z,83.00
2017-05-01T23:07:34.787Z,83.70
2017-05-01T23:10:03.734Z,84.40
2017-05-01T23:12:32.617Z,83.90
2017-05-01T23:15:01.501Z,85.40
2017-05-01T23:17:30.526Z,85.50
2017-05-01T23:19:59.406Z,84.80
2017-05-01T23:22:28.288Z,85.30
2017-05-01T23:24:57.417Z,85.40
2017-05-01T23:27:27.049Z,85.60
2017-05-01T23:29:55.937Z,85.90
2017-05-01T23:32:24.881Z,86.10
2017-05-01T23:34:53.777Z,86.30
2017-05-01T23:37:22.692Z,86.30
2017-05-01T23:39:51.593Z,87.30
2017-05-01T23:42:20.480Z,87.20
2017-05-01T23:44:49.365Z,87.80
2017-05-01T23:47:19.032Z,87.50
2017-05-01T23:49:47.925Z,87.90
2017-05-01T23:52:16.823Z,88.00
2017-05-01T23:54:46.101Z,88.10
2017-05-01T23:57:14.993Z,87.30
2017-05-01T23:59:43.885Z,87.60
